Time;durP1;ratioP1;P1;durP2;ratioP2;P2;SDS_P1;SDS_P2;PMS_P1;PMS_P2;Temp;Humidity;BMP_temperature;BMP_pressure;BME280_temperature;BME280_humidity;BME280_pressure;Samples;Min_cycle;Max_cycle;Signal;HPM_P1;HPM_P2
2022/02/12 00:00:51;;;;;;;28.13;10.90;;;-1.90;99.90;;;-146.41;100.00;57768.22;5042507;28;20436;-66
2022/02/12 00:03:18;;;;;;;24.50;10.20;;;-1.90;99.90;;;-146.41;100.00;57768.22;5040992;28;20049;-66
2022/02/12 00:05:46;;;;;;;24.67;11.48;;;-1.90;99.90;;;-146.41;100.00;57768.22;5041468;28;20109;-66
2022/02/12 00:08:13;;;;;;;21.98;10.48;;;-1.90;99.90;;;-146.41;100.00;57768.22;5041067;28;20140;-66
2022/02/12 00:10:40;;;;;;;24.30;11.25;;;-2.00;99.90;;;-146.41;100.00;57768.22;5042272;28;20132;-66
2022/02/12 00:13:11;;;;;;;22.80;9.73;;;-2.00;99.90;;;-146.41;100.00;57768.22;5041526;28;20049;-66
2022/02/12 00:15:42;;;;;;;21.58;9.23;;;-2.00;99.90;;;-146.41;100.00;57768.22;5041162;28;20118;-66
2022/02/12 00:18:10;;;;;;;21.30;10.52;;;-2.00;99.90;;;-146.41;100.00;57768.22;5043555;28;20111;-66
2022/02/12 00:20:37;;;;;;;23.88;8.75;;;-2.00;99.90;;;-146.41;100.00;57768.22;5039401;28;20045;-66
2022/02/12 00:23:06;;;;;;;18.98;9.20;;;-2.00;99.90;;;-146.41;100.00;57768.22;5036543;28;20569;-66
2022/02/12 00:25:34;;;;;;;29.17;11.65;;;-2.10;99.90;;;-146.41;100.00;57768.22;5038112;28;20127;-66
2022/02/12 00:28:01;;;;;;;35.67;12.85;;;-2.10;99.90;;;-146.41;100.00;57768.22;5043094;28;20076;-66
2022/02/12 00:30:28;;;;;;;28.63;12.23;;;-2.10;99.90;;;-146.41;100.00;57768.22;5037320;28;20130;-66
2022/02/12 00:32:56;;;;;;;24.80;11.90;;;-2.10;99.90;;;-146.41;100.00;57768.22;5040410;28;20131;-66
2022/02/12 00:35:23;;;;;;;26.50;12.07;;;-2.20;99.90;;;-146.41;100.00;57768.22;5038330;28;20223;-67
2022/02/12 00:37:51;;;;;;;27.92;11.30;;;-2.20;99.90;;;-146.41;100.00;57768.22;5036933;28;20120;-67
2022/02/12 00:40:20;;;;;;;28.23;11.18;;;-2.20;99.90;;;-146.41;100.00;57768.22;5050893;28;20410;-67
2022/02/12 00:42:46;;;;;;;25.65;11.40;;;-2.20;99.90;;;-146.41;100.00;57768.22;5037977;28;20163;-66
2022/02/12 00:45:13;;;;;;;23.58;9.90;;;-2.20;99.90;;;-146.41;100.00;57768.22;5044745;28;20143;-66
2022/02/12 00:47:41;;;;;;;26.13;9.80;;;-2.20;99.90;;;-146.41;100.00;57768.22;5037032;28;20072;-66
2022/02/12 00:50:09;;;;;;;29.02;11.60;;;-2.20;99.90;;;-146.41;100.00;57768.22;5043898;28;20053;-67
2022/02/12 00:52:36;;;;;;;31.67;11.00;;;-2.30;99.90;;;-146.41;100.00;57768.22;5040447;28;20132;-66
2022/02/12 00:55:03;;;;;;;25.88;10.90;;;-2.30;99.90;;;-146.41;100.00;57768.22;5043300;28;20041;-66
2022/02/12 00:57:31;;;;;;;30.30;12.15;;;-2.30;99.90;;;-146.41;100.00;57768.22;5045811;28;20067;-66
2022/02/12 00:59:59;;;;;;;35.15;15.02;;;-2.40;99.90;;;-146.41;100.00;57768.22;5046399;28;20059;-67
2022/02/12 01:02:26;;;;;;;31.10;12.23;;;-2.30;99.90;;;-146.41;100.00;57768.22;5044574;28;20478;-66
2022/02/12 01:04:53;;;;;;;33.72;12.75;;;-2.40;99.90;;;-146.41;100.00;57768.22;5044676;28;20413;-66
2022/02/12 01:07:20;;;;;;;29.17;11.75;;;-2.50;99.90;;;-146.41;100.00;57768.22;5042964;28;20140;-66
2022/02/12 01:09:48;;;;;;;27.52;11.52;;;-2.60;99.90;;;-146.41;100.00;57768.22;5042924;28;20045;-66
2022/02/12 01:12:14;;;;;;;24.27;10.50;;;-2.50;99.90;;;-146.41;100.00;57768.22;5045119;28;20659;-67
2022/02/12 01:14:42;;;;;;;30.17;12.65;;;;;;;-146.41;100.00;57768.22;5046311;28;20041;-67
2022/02/12 01:17:10;;;;;;;33.10;10.32;;;-2.60;99.90;;;-146.41;100.00;57768.22;5045510;28;20049;-67
2022/02/12 01:19:37;;;;;;;27.95;10.80;;;-2.60;99.90;;;-146.41;100.00;57768.22;5042907;28;20052;-66
2022/02/12 01:22:04;;;;;;;23.80;9.13;;;-2.60;99.90;;;-146.41;100.00;57768.22;5043907;28;20365;-66
2022/02/12 01:24:31;;;;;;;25.10;9.93;;;-2.60;99.90;;;-146.41;100.00;57768.22;5039080;28;20441;-67
2022/02/12 01:26:58;;;;;;;26.50;9.15;;;-2.60;99.90;;;-146.41;100.00;57768.22;5042960;28;20677;-67
2022/02/12 01:29:25;;;;;;;24.63;9.13;;;-2.60;99.90;;;-146.41;100.00;57768.22;5041505;28;20473;-67
2022/02/12 01:31:52;;;;;;;23.90;8.70;;;-2.60;99.90;;;-146.41;100.00;57768.22;5043888;28;20171;-66
2022/02/12 01:34:19;;;;;;;20.25;7.80;;;;;;;-146.41;100.00;57768.22;5044259;28;20052;-66
2022/02/12 01:36:47;;;;;;;22.95;9.20;;;;;;;-146.41;100.00;57768.22;5038871;28;20103;-66
2022/02/12 01:39:13;;;;;;;19.77;7.60;;;-2.60;99.90;;;-146.41;100.00;57768.22;5043251;28;20071;-66
2022/02/12 01:41:40;;;;;;;27.05;7.70;;;-2.60;99.90;;;-146.41;100.00;57768.22;5043242;28;20053;-67
2022/02/12 01:44:09;;;;;;;20.88;6.90;;;-2.60;99.90;;;-146.41;100.00;57768.22;5044224;28;20472;-66
2022/02/12 01:46:37;;;;;;;21.83;8.02;;;-2.70;99.90;;;-146.41;100.00;57768.22;5042846;28;20049;-67
2022/02/12 01:49:05;;;;;;;26.52;8.55;;;-2.70;99.90;;;-146.41;100.00;57768.22;5044459;28;20144;-67
2022/02/12 01:51:32;;;;;;;20.10;7.55;;;-2.80;99.90;;;-146.41;100.00;57768.22;5043488;28;20136;-66
2022/02/12 01:53:59;;;;;;;16.35;7.43;;;-2.80;99.90;;;-146.41;100.00;57768.22;5043167;28;20474;-66
2022/02/12 01:56:28;;;;;;;24.92;8.63;;;-2.80;99.90;;;-146.41;100.00;57768.22;5044131;28;20055;-67
2022/02/12 01:58:55;;;;;;;16.83;7.25;;;-2.90;99.90;;;-146.41;100.00;57768.22;5045381;28;20041;-66
2022/02/12 02:01:22;;;;;;;20.00;7.97;;;-2.80;99.90;;;-146.41;100.00;57768.22;5043828;28;20072;-66
2022/02/12 02:03:49;;;;;;;22.27;8.55;;;-2.80;99.90;;;-146.41;100.00;57768.22;5044261;28;20347;-66
2022/02/12 02:06:16;;;;;;;28.27;10.18;;;-2.80;99.90;;;-146.41;100.00;57768.22;5040833;28;20148;-66
2022/02/12 02:08:43;;;;;;;23.83;7.90;;;-2.90;99.90;;;-146.41;100.00;57768.22;5043950;28;20049;-66
2022/02/12 02:11:10;;;;;;;25.95;7.57;;;-2.90;99.90;;;-146.41;100.00;57768.22;5044495;28;20073;-66
2022/02/12 02:13:37;;;;;;;21.58;7.63;;;-2.90;99.90;;;-146.41;100.00;57768.22;5048654;28;20140;-66
2022/02/12 02:16:13;;;;;;;19.80;7.18;;;-2.90;99.90;;;-146.41;100.00;57768.22;5042304;28;20047;-66
2022/02/12 02:18:42;;;;;;;16.05;6.43;;;-2.90;99.90;;;-146.41;100.00;57768.22;5041296;28;20052;-66
2022/02/12 02:21:09;;;;;;;19.83;6.95;;;-2.90;99.90;;;-146.41;100.00;57768.22;5041583;28;20140;-66
2022/02/12 02:23:41;;;;;;;19.55;7.57;;;-2.90;99.90;;;-146.41;100.00;57768.22;5040225;28;20068;-66
2022/02/12 02:26:09;;;;;;;21.27;5.78;;;-2.90;99.90;;;-146.41;100.00;57768.22;5043944;28;20560;-66
2022/02/12 02:28:36;;;;;;;15.73;5.90;;;-3.00;99.90;;;-146.41;100.00;57768.22;5040978;28;20072;-66
2022/02/12 02:31:03;;;;;;;20.70;7.43;;;-3.00;99.90;;;-146.41;100.00;57768.22;5039963;28;20128;-66
2022/02/12 02:33:29;;;;;;;21.80;7.05;;;-2.90;99.90;;;-146.41;100.00;57768.22;5040252;28;20128;-67
2022/02/12 02:35:56;;;;;;;17.58;6.03;;;-2.90;99.90;;;-146.41;100.00;57768.22;5040226;28;20049;-66
2022/02/12 02:38:24;;;;;;;17.80;7.07;;;-2.90;99.90;;;-146.41;100.00;57768.22;5038104;28;20046;-66
2022/02/12 02:40:56;;;;;;;16.20;6.53;;;;;;;-146.41;100.00;57768.22;5054763;28;20049;-66
2022/02/12 02:43:25;;;;;;;18.95;7.05;;;-3.00;99.90;;;-146.41;100.00;57768.22;5046460;28;20455;-66
2022/02/12 02:45:52;;;;;;;19.10;6.30;;;;;;;-146.41;100.00;57768.22;5042266;28;20136;-66
2022/02/12 02:48:20;;;;;;;20.50;7.20;;;;;;;-146.41;100.00;57768.22;5043828;28;20080;-66
2022/02/12 02:56:20;;;;;;;24.50;7.40;;;;;;;-146.41;100.00;57768.22;5041686;28;20047;-66
2022/02/12 02:58:55;;;;;;;20.98;7.57;;;;;;;-146.41;100.00;57768.22;5038693;28;20049;-66
2022/02/12 03:01:24;;;;;;;17.38;6.03;;;;;;;-146.41;100.00;57768.22;5038406;28;20041;-67
2022/02/12 03:03:54;;;;;;;24.58;6.90;;;;;;;-146.41;100.00;57768.22;5040852;28;20052;-66
2022/02/12 03:06:26;;;;;;;18.67;7.10;;;;;;;-146.41;100.00;57768.22;5039724;28;20068;-66
2022/02/12 03:08:54;;;;;;;17.20;6.45;;;;;;;-146.41;100.00;57768.22;5040236;28;20106;-66
2022/02/12 03:11:22;;;;;;;21.05;7.25;;;;;;;-146.41;100.00;57768.22;5041036;28;20080;-67
2022/02/12 03:13:52;;;;;;;17.08;6.78;;;;;;;-146.41;100.00;57768.22;5036772;28;20143;-66
2022/02/12 03:16:19;;;;;;;20.30;6.50;;;;;;;-146.41;100.00;57768.22;5036168;28;20518;-66
2022/02/12 03:18:48;;;;;;;19.10;7.05;;;;;;;-146.41;100.00;57768.22;5038755;28;20207;-66
2022/02/12 03:21:15;;;;;;;20.83;7.13;;;;;;;-146.41;100.00;57768.22;5040228;28;20231;-66
2022/02/12 03:23:43;;;;;;;17.42;6.13;;;;;;;-146.41;100.00;57768.22;5044632;28;20133;-66
2022/02/12 03:26:11;;;;;;;24.55;8.20;;;;;;;-146.41;100.00;57768.22;5044060;28;20128;-66
2022/02/12 03:28:39;;;;;;;18.48;7.00;;;;;;;-146.41;100.00;57768.22;5041142;28;20064;-66
2022/02/12 03:31:07;;;;;;;23.42;7.53;;;;;;;-146.41;100.00;57768.22;5038065;28;20044;-66
2022/02/12 03:33:34;;;;;;;19.50;7.35;;;;;;;-146.41;100.00;57768.22;5042617;28;20535;-67
2022/02/12 03:36:02;;;;;;;20.92;7.05;;;;;;;-146.41;100.00;57768.22;5041805;28;20450;-66
2022/02/12 03:38:32;;;;;;;22.02;7.68;;;;;;;-146.41;100.00;57768.22;5036952;28;20102;-66
2022/02/12 03:41:01;;;;;;;20.60;7.25;;;;;;;-146.41;100.00;57768.22;5042708;28;20171;-67
2022/02/12 03:43:34;;;;;;;17.77;6.30;;;;;;;-146.41;100.00;57768.22;5043701;28;20145;-66
2022/02/12 03:46:02;;;;;;;23.42;7.55;;;;;;;-146.41;100.00;57768.22;5039920;28;20044;-67
2022/02/12 03:48:30;;;;;;;23.15;7.80;;;;;;;-146.41;100.00;57768.22;5040641;28;20076;-67
2022/02/12 03:50:57;;;;;;;28.58;9.18;;;;;;;-146.41;100.00;57768.22;5038489;28;20049;-67
2022/02/12 03:53:24;;;;;;;28.10;8.25;;;;;;;-146.41;100.00;57768.22;5042021;28;20076;-67
2022/02/12 03:55:52;;;;;;;24.45;9.02;;;;;;;-146.41;100.00;57768.22;5043395;28;20052;-66
2022/02/12 03:58:20;;;;;;;29.38;8.55;;;;;;;-146.41;100.00;57768.22;5039592;28;20076;-66
2022/02/12 04:00:49;;;;;;;33.97;9.65;;;;;;;-146.41;100.00;57768.22;5040133;28;20096;-67
2022/02/12 04:03:17;;;;;;;30.67;9.57;;;;;;;-146.41;100.00;57768.22;5053843;28;20167;-66
2022/02/12 04:05:45;;;;;;;30.80;9.02;;;-3.40;99.90;;;-146.41;100.00;57768.22;5036369;28;20515;-67
2022/02/12 04:08:18;;;;;;;23.40;8.85;;;-3.30;99.90;;;-146.41;100.00;57768.22;5038175;28;20059;-67
2022/02/12 04:10:48;;;;;;;34.25;11.80;;;-3.40;99.90;;;-146.41;100.00;57768.22;5040580;28;20048;-67
2022/02/12 04:13:19;;;;;;;34.72;12.73;;;-3.40;99.90;;;-146.41;100.00;57768.22;5040173;28;20139;-66
2022/02/12 04:15:48;;;;;;;28.85;10.45;;;-3.40;99.90;;;-146.41;100.00;57768.22;5040505;28;20190;-66
2022/02/12 04:18:16;;;;;;;30.42;10.45;;;-3.40;99.90;;;-146.41;100.00;57768.22;5041359;28;20600;-66
2022/02/12 04:20:43;;;;;;;32.67;10.27;;;-3.40;99.90;;;-146.41;100.00;57768.22;5036451;28;20049;-66
2022/02/12 04:23:10;;;;;;;21.17;8.95;;;-3.40;99.90;;;-146.41;100.00;57768.22;5038303;28;20152;-66
2022/02/12 04:25:37;;;;;;;27.05;9.70;;;-3.40;99.90;;;-146.41;100.00;57768.22;5042779;28;20462;-66
2022/02/12 04:28:09;;;;;;;28.90;11.95;;;-3.40;99.90;;;-146.41;100.00;57768.22;5042546;28;20693;-66
2022/02/12 04:30:38;;;;;;;29.20;10.48;;;-3.40;99.90;;;-146.41;100.00;57768.22;5041127;28;20053;-66
2022/02/12 04:33:07;;;;;;;27.42;11.07;;;-3.40;99.90;;;-146.41;100.00;57768.22;5042662;28;20045;-66
2022/02/12 04:35:34;;;;;;;20.52;8.57;;;-3.40;99.90;;;-146.41;100.00;57768.22;5043046;28;20037;-67
2022/02/12 04:38:02;;;;;;;31.98;9.73;;;-3.50;99.90;;;-146.41;100.00;57768.22;5044023;28;20177;-66
2022/02/12 04:40:29;;;;;;;23.17;8.05;;;-3.50;99.90;;;-146.41;100.00;57768.22;5038788;28;20127;-66
2022/02/12 04:42:57;;;;;;;19.52;7.50;;;-3.50;99.90;;;-146.41;100.00;57768.22;5042946;28;20052;-67
2022/02/12 04:45:25;;;;;;;25.67;8.02;;;-3.50;99.90;;;-146.41;100.00;57768.22;5038113;28;20069;-66
2022/02/12 04:47:53;;;;;;;18.65;6.70;;;-3.50;99.90;;;-146.41;100.00;57768.22;5041444;28;20075;-66
2022/02/12 04:50:20;;;;;;;23.30;8.50;;;-3.50;99.90;;;-146.41;100.00;57768.22;5047276;28;20045;-66
2022/02/12 04:52:47;;;;;;;21.17;7.07;;;-3.40;99.90;;;-146.41;100.00;57768.22;5041366;28;20216;-67
2022/02/12 04:55:14;;;;;;;19.55;7.40;;;-3.30;99.90;;;-146.41;100.00;57768.22;5038775;28;20053;-67
2022/02/12 04:57:41;;;;;;;12.05;6.05;;;-3.30;99.90;;;-146.41;100.00;57768.22;5040386;28;20046;-67
2022/02/12 05:00:09;;;;;;;25.23;7.20;;;;;;;-146.41;100.00;57768.22;5040076;28;20136;-67
2022/02/12 05:02:36;;;;;;;25.80;6.30;;;;;;;-146.41;100.00;57768.22;5043203;28;20482;-67
2022/02/12 05:05:04;;;;;;;21.30;6.35;;;;;;;-146.41;100.00;57768.22;5046710;28;20140;-67
2022/02/12 05:07:31;;;;;;;21.35;6.65;;;;;;;-146.41;100.00;57768.22;5042645;28;20145;-66
2022/02/12 05:09:59;;;;;;;17.70;6.18;;;;;;;-146.41;100.00;57768.22;5038507;28;20145;-67
2022/02/12 05:12:28;;;;;;;21.25;6.13;;;;;;;-146.41;100.00;57768.22;5042916;28;20107;-67
2022/02/12 05:14:56;;;;;;;18.05;5.63;;;;;;;-146.41;100.00;57768.22;5043272;28;20045;-67
2022/02/12 05:17:24;;;;;;;24.48;7.70;;;;;;;-146.41;100.00;57768.22;5040664;28;20163;-67
2022/02/12 05:19:52;;;;;;;27.02;6.95;;;;;;;-146.41;100.00;57768.22;5044061;28;20055;-67
2022/02/12 05:22:21;;;;;;;22.67;7.38;;;;;;;-146.41;100.00;57768.22;5039833;28;20414;-67
2022/02/12 05:24:50;;;;;;;22.45;6.65;;;;;;;-146.41;100.00;57768.22;5042611;28;20056;-67
2022/02/12 05:27:17;;;;;;;21.42;5.90;;;;;;;-146.41;100.00;57768.22;5045316;28;20135;-67
2022/02/12 05:29:45;;;;;;;18.25;5.68;;;;;;;-146.41;100.00;57768.22;5040386;28;20052;-67
2022/02/12 05:32:12;;;;;;;23.67;7.15;;;-3.50;99.90;;;-146.41;100.00;57768.22;5039154;28;20181;-67
2022/02/12 05:34:39;;;;;;;17.63;5.75;;;-3.50;99.90;;;-146.41;100.00;57768.22;5044532;28;20124;-67
2022/02/12 05:37:06;;;;;;;25.20;7.03;;;-3.50;99.90;;;-146.41;100.00;57768.22;5042090;28;20123;-67
2022/02/12 05:39:33;;;;;;;14.45;6.40;;;-3.50;99.90;;;-146.41;100.00;57768.22;5044217;28;20041;-67
2022/02/12 05:41:59;;;;;;;23.75;8.73;;;-3.60;99.90;;;-146.41;100.00;57768.22;5039080;28;20048;-67
2022/02/12 05:44:26;;;;;;;20.27;7.60;;;-3.60;99.90;;;-146.41;100.00;57768.22;5038404;28;20077;-67
2022/02/12 05:46:54;;;;;;;20.17;7.55;;;-3.60;99.90;;;-146.41;100.00;57768.22;5037268;28;20465;-67
2022/02/12 05:49:21;;;;;;;21.48;7.30;;;-3.60;99.90;;;-146.41;100.00;57768.22;5039918;28;20053;-67
2022/02/12 05:51:48;;;;;;;22.15;7.55;;;-3.60;99.90;;;-146.41;100.00;57768.22;5041635;28;20405;-66
2022/02/12 05:54:15;;;;;;;30.13;9.40;;;-3.60;99.90;;;-146.41;100.00;57768.22;5042917;28;20060;-67
2022/02/12 05:56:42;;;;;;;24.20;8.55;;;-3.50;99.90;;;-146.41;100.00;57768.22;5044348;28;20508;-67
2022/02/12 05:59:12;;;;;;;22.60;8.45;;;-3.60;99.90;;;-146.41;100.00;57768.22;5042364;28;20465;-67
2022/02/12 06:01:40;;;;;;;27.77;8.05;;;-3.60;99.90;;;-146.41;100.00;57768.22;5040768;28;20042;-66
2022/02/12 06:04:07;;;;;;;23.15;8.65;;;-3.60;99.90;;;-146.41;100.00;57768.22;5046032;28;20543;-69
2022/02/12 06:06:34;;;;;;;27.73;8.30;;;-3.60;99.90;;;-146.41;100.00;57768.22;5044070;28;20662;-66
2022/02/12 06:09:01;;;;;;;22.15;6.90;;;-3.60;99.90;;;-146.41;100.00;57768.22;5042948;28;20528;-66
2022/02/12 06:11:28;;;;;;;21.92;7.47;;;-3.70;99.90;;;-146.41;100.00;57768.22;5040976;28;20072;-67
2022/02/12 06:13:55;;;;;;;15.50;7.07;;;-3.70;99.90;;;-146.41;100.00;57768.22;5045799;28;20132;-66
2022/02/12 06:16:23;;;;;;;31.13;12.05;;;-3.70;99.90;;;-146.41;100.00;57768.22;5039815;28;20080;-67
2022/02/12 06:18:50;;;;;;;51.35;25.08;;;-3.70;99.90;;;-146.41;100.00;57768.22;5042108;28;20084;-66
2022/02/12 06:21:17;;;;;;;39.40;22.63;;;-3.80;99.90;;;-146.41;100.00;57768.22;5041115;28;20045;-66
2022/02/12 06:23:44;;;;;;;31.52;16.27;;;-3.80;99.90;;;-146.41;100.00;57768.22;5037842;28;20128;-66
2022/02/12 06:26:11;;;;;;;31.17;12.10;;;-3.80;99.90;;;-146.41;100.00;57768.22;5045018;28;20100;-66
2022/02/12 06:28:38;;;;;;;26.52;10.27;;;-3.80;99.90;;;-146.41;100.00;57768.22;5038061;28;20059;-66
2022/02/12 06:31:05;;;;;;;26.65;10.07;;;-3.80;99.90;;;-146.41;100.00;57768.22;5040510;28;20151;-66
2022/02/12 06:33:32;;;;;;;24.98;9.45;;;-3.80;99.90;;;-146.41;100.00;57768.22;5039133;28;20080;-66
2022/02/12 06:36:00;;;;;;;27.48;9.68;;;-3.80;99.90;;;-146.41;100.00;57768.22;5043469;28;20124;-67
2022/02/12 06:38:27;;;;;;;21.98;9.05;;;-3.80;99.90;;;-146.41;100.00;57768.22;5035625;28;20048;-66
2022/02/12 06:40:55;;;;;;;30.42;10.63;;;-3.70;99.90;;;-146.41;100.00;57768.22;5040935;28;20076;-66
2022/02/12 06:43:22;;;;;;;32.00;11.77;;;-3.70;99.90;;;-146.41;100.00;57768.22;5046149;28;20561;-67
2022/02/12 06:45:51;;;;;;;23.10;9.27;;;-3.70;99.90;;;-146.41;100.00;57768.22;5041708;28;20130;-66
2022/02/12 06:48:18;;;;;;;35.53;13.43;;;-3.60;99.90;;;-146.41;100.00;57768.22;5038638;28;20146;-67
2022/02/12 06:50:46;;;;;;;33.60;12.77;;;-3.60;99.90;;;-146.41;100.00;57768.22;5035260;28;20041;-67
2022/02/12 06:53:14;;;;;;;43.38;15.70;;;-3.60;99.90;;;-146.41;100.00;57768.22;5042814;28;20091;-67
2022/02/12 06:55:41;;;;;;;46.20;18.45;;;-3.50;99.90;;;-146.41;100.00;57768.22;5038987;28;20135;-67
2022/02/12 06:58:08;;;;;;;39.60;16.85;;;-3.50;99.90;;;-146.41;100.00;57768.22;5039976;28;20053;-67
2022/02/12 07:00:35;;;;;;;47.03;14.60;;;-3.50;99.90;;;-146.41;100.00;57768.22;5040205;28;20132;-66
2022/02/12 07:03:05;;;;;;;40.70;16.23;;;-3.40;99.90;;;-146.41;100.00;57768.22;5041143;28;20053;-66
2022/02/12 07:05:34;;;;;;;30.67;12.32;;;-3.40;99.90;;;-146.41;100.00;57768.22;5040612;28;20477;-67
2022/02/12 07:08:01;;;;;;;34.28;11.77;;;-3.40;99.90;;;-146.41;100.00;57768.22;5039071;28;20573;-66
2022/02/12 07:10:31;;;;;;;34.40;15.77;;;-3.40;99.90;;;-146.41;100.00;57768.22;5042627;28;20053;-66
2022/02/12 07:12:58;;;;;;;52.03;23.00;;;-3.40;99.90;;;-146.41;100.00;57768.22;5036229;28;20223;-66
2022/02/12 07:15:25;;;;;;;50.13;21.73;;;-3.30;99.90;;;-146.41;100.00;57768.22;5040973;28;20119;-66
2022/02/12 07:17:53;;;;;;;49.92;21.77;;;-3.30;99.90;;;-146.41;100.00;57768.22;5035269;28;20203;-66
2022/02/12 07:20:20;;;;;;;33.55;15.73;;;-3.30;99.90;;;-146.41;100.00;57768.22;5038548;28;20037;-66
2022/02/12 07:22:47;;;;;;;28.30;13.85;;;-3.20;99.90;;;-146.41;100.00;57768.22;5037435;28;20081;-67
2022/02/12 07:25:15;;;;;;;41.28;20.33;;;-3.10;99.90;;;-146.41;100.00;57768.22;5041356;28;20123;-66
2022/02/12 07:27:43;;;;;;;32.97;16.73;;;-3.10;99.90;;;-146.41;100.00;57768.22;5034924;28;20136;-67
2022/02/12 07:30:15;;;;;;;41.53;16.83;;;-3.10;99.90;;;-146.41;100.00;57768.22;5039315;28;20426;-67
2022/02/12 07:32:44;;;;;;;36.70;14.68;;;-3.10;99.90;;;-146.41;100.00;57768.22;5041368;28;20118;-66
2022/02/12 07:35:14;;;;;;;26.58;12.38;;;-3.00;99.90;;;-146.41;100.00;57768.22;5042454;28;20545;-67
2022/02/12 07:37:44;;;;;;;26.80;8.82;;;-3.00;99.90;;;-146.41;100.00;57768.22;5038378;28;20075;-66
2022/02/12 07:40:14;;;;;;;24.73;10.32;;;-2.90;99.90;;;-146.41;100.00;57768.22;5037688;28;20145;-66
2022/02/12 07:42:41;;;;;;;23.45;9.45;;;-2.80;99.90;;;-146.41;100.00;57768.22;5041910;28;20230;-67
2022/02/12 07:45:11;;;;;;;32.58;11.45;;;-2.70;99.90;;;-146.41;100.00;57768.22;5037405;28;20073;-67
2022/02/12 07:47:39;;;;;;;28.00;11.00;;;-2.70;99.90;;;-146.41;100.00;57768.22;5038362;28;20118;-66
2022/02/12 07:50:10;;;;;;;31.98;11.88;;;-2.60;99.90;;;-146.41;100.00;57768.22;5038437;28;20144;-66
2022/02/12 07:52:38;;;;;;;34.97;11.23;;;-2.50;99.90;;;-146.41;100.00;57768.22;5038663;28;20140;-66
2022/02/12 07:55:05;;;;;;;28.70;14.32;;;-2.50;99.90;;;-146.41;100.00;57768.22;5038056;28;20111;-66
2022/02/12 07:57:32;;;;;;;28.80;15.45;;;-2.50;99.90;;;-146.41;100.00;57768.22;5034418;28;20049;-67
2022/02/12 07:59:59;;;;;;;47.60;15.30;;;-2.40;99.90;;;-146.41;100.00;57768.22;5041656;28;20043;-67
2022/02/12 08:02:26;;;;;;;39.03;18.05;;;-2.40;99.90;;;-146.41;100.00;57768.22;5030222;28;20116;-66
2022/02/12 08:04:53;;;;;;;35.22;19.33;;;-2.20;99.90;;;-146.41;100.00;57768.22;5037959;28;20211;-66
2022/02/12 08:07:29;;;;;;;44.10;19.17;;;-2.10;99.90;;;-146.41;100.00;57768.22;5036191;28;20139;-66
2022/02/12 08:11:22;;;;;;;39.17;16.55;;;-2.00;99.90;;;-146.41;100.00;57768.22;5044043;28;20123;-67
2022/02/12 08:12:49;;;;;;;33.60;13.60;;;-1.90;99.90;;;-146.41;100.00;57768.22;5036916;28;20449;-67
2022/02/12 08:15:17;;;;;;;31.90;11.35;;;-1.70;99.90;;;-146.41;100.00;57768.22;5037659;28;20056;-66
2022/02/12 08:17:43;;;;;;;32.50;11.68;;;-1.50;99.90;;;-146.41;100.00;57768.22;5041495;28;20087;-66
2022/02/12 08:20:12;;;;;;;32.75;11.57;;;-1.30;99.90;;;-146.41;100.00;57768.22;5042433;28;20067;-67
2022/02/12 08:22:39;;;;;;;26.35;9.35;;;-1.10;99.90;;;-146.41;100.00;57768.22;5036959;28;20121;-67
2022/02/12 08:25:07;;;;;;;28.83;9.18;;;-0.90;99.90;;;-146.41;100.00;57768.22;5040975;28;20481;-66
2022/02/12 08:27:35;;;;;;;23.83;8.02;;;-0.70;99.90;;;-146.41;100.00;57768.22;5038756;28;20049;-67
2022/02/12 08:30:04;;;;;;;28.77;7.40;;;-0.40;99.90;;;-146.41;100.00;57768.22;5032276;28;20061;-66
2022/02/12 08:32:33;;;;;;;25.27;7.53;;;-0.30;99.90;;;-146.41;100.00;57768.22;5053867;28;20540;-67
2022/02/12 08:35:00;;;;;;;20.08;7.80;;;-0.10;99.90;;;-146.41;100.00;57768.22;5040740;28;20080;-67
2022/02/12 08:37:27;;;;;;;18.02;6.65;;;0.00;99.90;;;-146.41;100.00;57768.22;5042151;28;20059;-67
2022/02/12 08:39:54;;;;;;;22.75;6.68;;;0.10;99.90;;;-146.41;100.00;57768.22;5039585;28;20150;-67
2022/02/12 08:42:21;;;;;;;25.55;6.70;;;0.30;99.90;;;-146.41;100.00;57768.22;5040297;28;20154;-67
2022/02/12 08:44:48;;;;;;;18.48;6.65;;;0.60;99.90;;;-146.41;100.00;57768.22;5039668;28;20562;-67
2022/02/12 08:47:16;;;;;;;20.08;6.55;;;0.70;99.90;;;-146.41;100.00;57768.22;5043623;28;20068;-66
2022/02/12 08:49:43;;;;;;;24.10;6.68;;;0.70;99.90;;;-146.41;100.00;57768.22;5039667;28;20114;-67
2022/02/12 08:52:10;;;;;;;15.10;4.70;;;0.80;99.90;;;-146.41;100.00;57768.22;5039060;28;20140;-67
2022/02/12 08:54:37;;;;;;;21.52;4.45;;;0.90;99.90;;;-146.41;100.00;57768.22;5039066;28;20429;-67
2022/02/12 08:57:05;;;;;;;16.33;3.70;;;1.10;99.90;;;-146.41;100.00;57768.22;5042987;28;20049;-66
2022/02/12 08:59:33;;;;;;;17.48;3.50;;;1.20;99.90;;;-146.41;100.00;57768.22;5043603;28;20153;-67
2022/02/12 09:02:09;;;;;;;22.83;3.95;;;1.40;99.90;;;-146.41;100.00;57768.22;5042435;28;20059;-67
2022/02/12 09:04:37;;;;;;;12.98;3.10;;;1.50;99.90;;;-146.41;100.00;57768.22;5041588;28;20076;-66
2022/02/12 09:07:05;;;;;;;18.27;3.17;;;1.60;99.90;;;-146.41;100.00;57768.22;5024195;28;20199;-66
2022/02/12 09:09:32;;;;;;;14.15;3.13;;;1.70;99.90;;;-146.41;100.00;57768.22;5040783;28;20128;-67
2022/02/12 09:12:00;;;;;;;11.05;2.40;;;1.80;99.90;;;-146.41;100.00;57768.22;5041178;28;20098;-67
2022/02/12 09:14:27;;;;;;;14.25;3.45;;;1.90;99.90;;;-146.41;100.00;57768.22;5038940;28;20124;-67
2022/02/12 09:16:54;;;;;;;14.55;3.22;;;2.00;99.90;;;-146.41;100.00;57768.22;5040937;28;20088;-67
2022/02/12 09:19:21;;;;;;;16.55;3.03;;;2.00;99.90;;;-146.41;100.00;57768.22;5042829;28;20127;-66
2022/02/12 09:21:48;;;;;;;17.50;3.15;;;2.10;99.90;;;-146.41;100.00;57768.22;5039289;28;20128;-67
2022/02/12 09:24:16;;;;;;;10.10;2.15;;;2.20;99.90;;;-146.41;100.00;57768.22;5044617;28;20091;-66
2022/02/12 09:26:43;;;;;;;13.27;2.42;;;2.30;99.90;;;-146.41;100.00;57768.22;5043473;28;20481;-67
2022/02/12 09:29:12;;;;;;;14.48;2.45;;;2.40;99.90;;;-146.41;100.00;57768.22;5045590;28;20172;-67
2022/02/12 09:31:39;;;;;;;14.80;3.15;;;2.40;99.90;;;-146.41;100.00;57768.22;5057027;28;20073;-67
2022/02/12 09:34:08;;;;;;;11.95;1.75;;;2.50;99.90;;;-146.41;100.00;57768.22;5044419;28;20049;-67
2022/02/12 09:36:37;;;;;;;10.55;2.40;;;2.60;99.90;;;-146.41;100.00;57768.22;5041153;28;20139;-67
2022/02/12 09:39:07;;;;;;;12.55;2.42;;;2.60;99.90;;;-146.41;100.00;57768.22;5044509;28;20045;-67
2022/02/12 09:41:36;;;;;;;15.50;2.20;;;2.70;99.90;;;-146.41;100.00;57768.22;5053618;28;20052;-67
2022/02/12 09:44:04;;;;;;;7.38;2.05;;;2.80;99.90;;;-146.41;100.00;57768.22;5045545;28;20072;-67
2022/02/12 09:46:44;;;;;;;7.28;1.50;;;2.80;99.90;;;-146.41;100.00;57768.22;5039885;28;20136;-66
2022/02/12 09:49:11;;;;;;;10.18;2.17;;;2.90;99.90;;;-146.41;100.00;57768.22;5047203;28;20080;-67
2022/02/12 09:51:41;;;;;;;13.43;1.55;;;2.90;99.90;;;-146.41;100.00;57768.22;5041014;28;20077;-66
2022/02/12 09:54:08;;;;;;;16.50;2.10;;;3.10;99.90;;;-146.41;100.00;57768.22;5059018;28;20139;-66
2022/02/12 09:56:40;;;;;;;11.77;2.15;;;3.20;99.90;;;-146.41;100.00;57768.22;5039571;28;20045;-67
2022/02/12 09:59:09;;;;;;;9.35;1.85;;;3.20;99.90;;;-146.41;100.00;57768.22;5041505;28;20442;-67
2022/02/12 10:01:40;;;;;;;13.93;2.33;;;3.30;99.90;;;-146.41;100.00;57768.22;5042256;28;20041;-67
2022/02/12 10:04:15;;;;;;;12.10;2.58;;;3.30;99.90;;;-146.41;100.00;57768.22;5042961;28;20100;-67
2022/02/12 10:06:45;;;;;;;10.35;1.92;;;3.40;99.90;;;-146.41;100.00;57768.22;5053467;28;20049;-67
2022/02/12 10:09:13;;;;;;;11.13;1.80;;;3.40;99.90;;;-146.41;100.00;57768.22;5042077;28;20593;-66
2022/02/12 10:11:54;;;;;;;10.02;2.00;;;3.50;99.90;;;-146.41;100.00;57768.22;5044240;28;20044;-67
2022/02/12 10:14:27;;;;;;;8.43;1.83;;;3.40;99.90;;;-146.41;100.00;57768.22;5043878;28;20516;-67